createdAt,value
2018-03-19T00:01:44.438Z,78.53
2018-03-19T00:04:10.198Z,78.58
2018-03-19T00:06:35.937Z,78.84
2018-03-19T00:09:01.695Z,78.82
2018-03-19T00:11:27.430Z,78.47
2018-03-19T00:13:53.170Z,78.60
2018-03-19T00:16:18.914Z,78.51
2018-03-19T00:18:44.653Z,79.27
2018-03-19T00:21:10.372Z,79.39
2018-03-19T00:23:36.114Z,79.57
2018-03-19T00:26:01.838Z,79.54
2018-03-19T00:28:27.571Z,79.13
2018-03-19T00:30:53.315Z,79.61
2018-03-19T00:33:19.046Z,79.47
2018-03-19T00:35:44.781Z,79.92
2018-03-19T00:38:10.518Z,79.85
2018-03-19T00:40:36.266Z,80.22
2018-03-19T00:43:02.006Z,80.61
2018-03-19T00:45:27.752Z,80.93
2018-03-19T00:47:53.494Z,81.01
2018-03-19T00:50:19.234Z,80.69
2018-03-19T00:52:44.979Z,81.34
2018-03-19T00:55:10.718Z,81.49
2018-03-19T00:57:36.469Z,81.24
2018-03-19T01:00:02.228Z,81.62
2018-03-19T01:02:27.966Z,81.78
2018-03-19T01:04:53.731Z,82.09
2018-03-19T01:07:19.449Z,82.51
2018-03-19T01:09:45.185Z,82.80
2018-03-19T01:12:10.926Z,83.00
2018-03-19T01:14:36.655Z,83.08
2018-03-19T01:17:02.405Z,83.10
2018-03-19T01:19:28.145Z,83.22
2018-03-19T01:21:53.879Z,83.15
2018-03-19T01:24:19.609Z,83.02
2018-03-19T01:26:45.354Z,83.20
2018-03-19T01:29:11.090Z,82.64
2018-03-19T01:31:36.841Z,83.09
2018-03-19T01:34:02.572Z,83.24
2018-03-19T01:36:28.339Z,83.62
2018-03-19T01:38:54.077Z,83.42
2018-03-19T01:41:19.821Z,83.64
2018-03-19T01:43:45.549Z,83.72
2018-03-19T01:46:11.289Z,83.90
2018-03-19T01:48:37.010Z,84.30
2018-03-19T01:51:02.725Z,85.01
2018-03-19T01:53:28.450Z,84.96
2018-03-19T01:55:54.160Z,85.82
2018-03-19T01:58:19.889Z,85.85
2018-03-19T02:00:45.622Z,85.86
2018-03-19T02:03:11.352Z,86.10
2018-03-19T02:05:37.086Z,86.32
2018-03-19T02:08:02.834Z,86.55
2018-03-19T02:10:28.562Z,86.64
2018-03-19T02:12:54.293Z,86.61
2018-03-19T02:15:20.014Z,86.67
2018-03-19T02:17:45.746Z,86.85
2018-03-19T02:20:11.475Z,86.78
2018-03-19T02:22:37.205Z,87.06
2018-03-19T02:25:02.938Z,86.90
2018-03-19T02:27:28.674Z,87.03
2018-03-19T02:29:54.383Z,87.35
2018-03-19T02:32:20.115Z,87.36
2018-03-19T02:34:45.849Z,87.47
2018-03-19T02:37:11.595Z,87.57
2018-03-19T02:39:37.321Z,87.55
2018-03-19T02:42:03.058Z,87.59
2018-03-19T02:44:28.787Z,87.39
2018-03-19T02:46:54.526Z,87.39
2018-03-19T02:49:20.258Z,87.37
2018-03-19T02:51:45.985Z,87.56
2018-03-19T02:54:11.719Z,87.37
2018-03-19T02:56:37.439Z,87.62
2018-03-19T02:59:03.171Z,87.64
2018-03-19T03:01:28.910Z,87.71
2018-03-19T03:03:54.639Z,87.76
2018-03-19T03:06:20.382Z,87.96
2018-03-19T03:08:46.112Z,87.82
2018-03-19T03:11:11.837Z,87.83
2018-03-19T03:13:37.575Z,87.96
2018-03-19T03:16:03.294Z,88.02
2018-03-19T03:18:29.016Z,88.14
2018-03-19T03:20:54.767Z,88.19
2018-03-19T03:23:20.493Z,88.10
2018-03-19T03:25:46.246Z,88.66
2018-03-19T03:28:11.976Z,88.41
2018-03-19T03:30:37.700Z,88.26
2018-03-19T03:33:03.438Z,88.50
2018-03-19T03:35:29.162Z,88.66
2018-03-19T03:37:54.883Z,89.00
2018-03-19T03:40:20.608Z,88.80
2018-03-19T03:42:46.321Z,89.00
2018-03-19T03:45:12.066Z,88.71
2018-03-19T03:47:37.808Z,88.86
2018-03-19T03:50:03.546Z,88.84
2018-03-19T03:52:29.277Z,89.04
2018-03-19T03:54:55.002Z,89.04
2018-03-19T03:57:20.738Z,88.70
2018-03-19T03:59:46.469Z,88.61
2018-03-19T04:02:12.189Z,88.72
2018-03-19T04:04:37.919Z,88.47
2018-03-19T04:07:03.650Z,88.56
2018-03-19T04:09:29.387Z,88.21
2018-03-19T04:11:55.108Z,88.16
2018-03-19T04:14:20.851Z,88.54
2018-03-19T04:16:46.585Z,88.29
2018-03-19T04:19:12.311Z,88.42
2018-03-19T04:21:38.035Z,88.41
2018-03-19T04:24:03.764Z,88.09
2018-03-19T04:26:29.505Z,88.15
2018-03-19T04:28:55.225Z,85.28
2018-03-19T04:31:20.955Z,84.41
2018-03-19T04:33:46.682Z,84.12
2018-03-19T04:36:12.423Z,84.15
2018-03-19T04:38:38.157Z,83.60
2018-03-19T04:41:03.891Z,85.46
2018-03-19T04:43:29.670Z,86.29
2018-03-19T04:45:55.392Z,87.80
2018-03-19T04:48:21.121Z,87.55
2018-03-19T04:50:46.881Z,87.08
2018-03-19T04:53:12.598Z,88.95
2018-03-19T04:55:38.320Z,86.72
2018-03-19T04:58:10.919Z,83.98
2018-03-19T05:00:36.645Z,85.37
2018-03-19T05:03:02.399Z,84.17
2018-03-19T05:05:28.126Z,84.54
2018-03-19T05:07:53.862Z,85.16
2018-03-19T05:10:19.593Z,86.41
2018-03-19T05:12:45.327Z,87.35
2018-03-19T05:15:11.064Z,84.15
2018-03-19T05:17:36.825Z,82.62
2018-03-19T05:20:02.539Z,84.30
2018-03-19T05:22:28.284Z,85.22
2018-03-19T05:24:54.026Z,87.64
2018-03-19T05:27:19.779Z,84.80
2018-03-19T05:29:45.506Z,83.30
2018-03-19T05:32:11.250Z,85.60
2018-03-19T05:34:36.996Z,84.62
2018-03-19T05:37:02.788Z,83.02
2018-03-19T05:39:28.474Z,82.66
2018-03-19T05:41:54.208Z,85.58
2018-03-19T05:44:19.939Z,83.90
2018-03-19T05:46:45.685Z,82.12
2018-03-19T05:49:11.418Z,83.25
2018-03-19T05:51:37.138Z,83.21
2018-03-19T05:54:02.893Z,83.51
2018-03-19T05:56:28.629Z,85.63
2018-03-19T05:58:54.375Z,84.19
2018-03-19T06:01:20.119Z,84.58
2018-03-19T06:03:45.868Z,86.97
2018-03-19T06:06:11.595Z,87.58
2018-03-19T06:08:37.341Z,88.11
2018-03-19T06:11:03.073Z,84.95
2018-03-19T06:13:28.820Z,86.64
2018-03-19T06:15:54.549Z,86.69
2018-03-19T06:18:20.291Z,87.34
2018-03-19T06:20:46.028Z,86.99
2018-03-19T06:23:11.738Z,86.79
2018-03-19T06:25:37.479Z,86.69
2018-03-19T06:28:03.218Z,86.22
2018-03-19T06:30:28.986Z,86.06
2018-03-19T06:32:54.714Z,86.07
2018-03-19T06:35:20.459Z,85.41
2018-03-19T06:37:46.187Z,85.22
2018-03-19T06:40:11.927Z,85.04
2018-03-19T06:42:37.658Z,83.76
2018-03-19T06:45:03.420Z,83.44
2018-03-19T06:47:29.158Z,84.12
2018-03-19T06:49:54.905Z,84.14
2018-03-19T06:52:20.642Z,84.25
2018-03-19T06:54:46.374Z,83.78
2018-03-19T06:57:12.111Z,82.46
2018-03-19T06:59:37.842Z,82.45
2018-03-19T07:02:03.586Z,82.23
2018-03-19T07:04:29.314Z,81.88
2018-03-19T07:06:55.058Z,81.52
2018-03-19T07:09:20.798Z,83.11
2018-03-19T07:11:46.538Z,81.44
2018-03-19T07:14:12.263Z,78.73
2018-03-19T07:16:38.009Z,76.61
2018-03-19T07:19:03.746Z,76.24
2018-03-19T07:21:29.485Z,75.19
2018-03-19T07:23:55.216Z,73.58
2018-03-19T07:26:20.939Z,72.17
2018-03-19T07:28:46.665Z,71.16
2018-03-19T07:31:12.399Z,72.42
2018-03-19T07:33:38.127Z,67.44
2018-03-19T07:36:03.853Z,69.40
2018-03-19T07:38:29.573Z,64.99
2018-03-19T07:40:55.306Z,63.64
2018-03-19T07:43:21.041Z,63.53
2018-03-19T07:45:46.770Z,60.04
2018-03-19T07:48:12.516Z,60.01
2018-03-19T07:50:38.238Z,62.24
2018-03-19T07:53:03.978Z,57.54
2018-03-19T07:55:29.716Z,56.89
2018-03-19T07:57:55.443Z,53.53
2018-03-19T08:00:21.186Z,56.71
2018-03-19T08:02:46.930Z,55.10
2018-03-19T08:05:12.663Z,53.51
2018-03-19T08:07:38.386Z,54.44
2018-03-19T08:10:04.114Z,52.05
2018-03-19T08:12:29.854Z,54.11
2018-03-19T08:14:55.569Z,51.54
2018-03-19T08:17:21.294Z,50.47
2018-03-19T08:19:47.014Z,46.11
2018-03-19T08:22:12.766Z,50.12
2018-03-19T08:24:38.519Z,49.14
2018-03-19T08:27:05.142Z,47.65
2018-03-19T08:29:30.952Z,44.70
2018-03-19T08:31:56.679Z,46.94
2018-03-19T08:34:22.418Z,46.41
2018-03-19T08:36:48.142Z,44.69
2018-03-19T08:39:13.866Z,40.37
2018-03-19T08:41:39.623Z,40.00
2018-03-19T08:44:05.354Z,38.41
2018-03-19T08:46:31.077Z,39.34
2018-03-19T08:48:56.803Z,38.40
2018-03-19T08:51:22.535Z,34.22
2018-03-19T08:53:48.270Z,36.21
2018-03-19T08:56:13.990Z,34.94
2018-03-19T08:58:39.730Z,35.09
2018-03-19T09:01:05.459Z,37.76
2018-03-19T09:03:31.179Z,37.06
2018-03-19T09:05:56.911Z,37.74
2018-03-19T09:08:22.625Z,36.87
2018-03-19T09:10:48.366Z,36.89
2018-03-19T09:13:14.081Z,36.81
2018-03-19T09:15:39.811Z,34.62
2018-03-19T09:18:05.539Z,34.62
2018-03-19T09:20:31.285Z,33.98
2018-03-19T09:22:57.009Z,32.57
2018-03-19T09:25:22.741Z,32.89
2018-03-19T09:27:48.496Z,32.63
2018-03-19T09:30:14.235Z,31.89
2018-03-19T09:32:39.966Z,32.00
2018-03-19T09:35:05.904Z,31.72
2018-03-19T09:37:31.614Z,34.12
2018-03-19T09:39:57.353Z,32.97
2018-03-19T09:42:23.078Z,33.30
2018-03-19T09:44:48.819Z,32.67
2018-03-19T09:47:14.547Z,32.55
2018-03-19T09:49:40.301Z,32.85
2018-03-19T09:52:06.029Z,31.37
2018-03-19T09:54:31.754Z,31.60
2018-03-19T09:56:57.506Z,32.21
2018-03-19T09:59:23.225Z,30.34
2018-03-19T10:01:48.959Z,30.93
2018-03-19T10:04:14.694Z,29.39
2018-03-19T10:06:40.616Z,29.45
2018-03-19T10:09:06.339Z,30.58
2018-03-19T10:11:32.278Z,29.94
2018-03-19T10:13:58.046Z,30.03
2018-03-19T10:16:23.788Z,29.74
2018-03-19T10:18:56.559Z,29.01
2018-03-19T10:21:22.291Z,29.09
2018-03-19T10:23:48.000Z,29.17
2018-03-19T10:26:13.745Z,28.98
2018-03-19T10:28:39.470Z,30.16
2018-03-19T10:31:05.311Z,29.35
2018-03-19T10:33:31.049Z,29.68
2018-03-19T10:35:56.778Z,29.05
2018-03-19T10:38:22.522Z,29.50
2018-03-19T10:40:48.250Z,28.35
2018-03-19T10:43:13.979Z,26.59
2018-03-19T10:45:39.702Z,27.58
2018-03-19T10:48:05.454Z,30.78
2018-03-19T10:50:31.198Z,29.23
2018-03-19T10:52:56.991Z,28.69
2018-03-19T10:55:22.667Z,26.26
2018-03-19T10:57:48.402Z,27.43
2018-03-19T11:00:14.141Z,27.94
2018-03-19T11:02:46.030Z,28.96
2018-03-19T11:05:17.870Z,30.52
2018-03-19T11:07:45.463Z,29.36
2018-03-19T11:10:11.190Z,28.94
2018-03-19T11:12:37.725Z,30.43
2018-03-19T11:15:03.470Z,29.48
2018-03-19T11:17:29.228Z,28.07
2018-03-19T11:19:54.970Z,28.50
2018-03-19T11:22:20.701Z,28.40
2018-03-19T11:24:46.451Z,27.92
2018-03-19T11:27:12.187Z,28.90
2018-03-19T11:29:37.934Z,28.78
2018-03-19T11:32:03.683Z,29.36
2018-03-19T11:34:29.417Z,28.24
2018-03-19T11:36:55.158Z,27.45
2018-03-19T11:39:20.878Z,27.68
2018-03-19T11:41:46.648Z,26.59
2018-03-19T11:44:12.358Z,25.79
2018-03-19T11:46:38.114Z,25.97
2018-03-19T11:49:03.845Z,26.04
2018-03-19T11:51:29.574Z,24.35
2018-03-19T11:53:55.314Z,25.97
2018-03-19T11:56:21.046Z,26.41
2018-03-19T11:58:46.784Z,25.10
2018-03-19T12:01:12.614Z,25.56
2018-03-19T12:03:38.354Z,25.70
2018-03-19T12:06:04.098Z,24.95
2018-03-19T12:08:29.837Z,24.98
2018-03-19T12:10:55.562Z,26.37
2018-03-19T12:13:21.302Z,24.50
2018-03-19T12:15:47.018Z,27.08
2018-03-19T12:18:12.792Z,24.85
2018-03-19T12:20:38.538Z,25.24
2018-03-19T12:23:04.292Z,26.18
2018-03-19T12:25:30.018Z,24.69
2018-03-19T12:27:55.757Z,24.86
2018-03-19T12:30:21.481Z,25.33
2018-03-19T12:32:47.209Z,25.21
2018-03-19T12:35:12.936Z,23.95
2018-03-19T12:37:38.668Z,24.00
2018-03-19T12:40:04.402Z,24.61
2018-03-19T12:42:30.138Z,24.36
2018-03-19T12:44:55.882Z,25.10
2018-03-19T12:47:21.610Z,25.06
2018-03-19T12:49:47.350Z,25.71
2018-03-19T12:52:13.073Z,25.45
2018-03-19T12:54:38.814Z,25.43
2018-03-19T12:57:04.539Z,25.00
2018-03-19T12:59:30.278Z,25.91
2018-03-19T13:01:55.998Z,23.46
2018-03-19T13:04:21.730Z,24.93
2018-03-19T13:06:47.457Z,25.17
2018-03-19T13:09:13.214Z,25.10
2018-03-19T13:11:38.939Z,25.74
2018-03-19T13:14:04.673Z,25.72
2018-03-19T13:16:30.382Z,25.51
2018-03-19T13:18:56.109Z,25.35
2018-03-19T13:21:21.882Z,24.38
2018-03-19T13:23:47.615Z,25.39
2018-03-19T13:26:13.345Z,25.81
2018-03-19T13:28:39.072Z,25.57
2018-03-19T13:31:04.814Z,25.26
2018-03-19T13:33:30.551Z,25.17
2018-03-19T13:35:56.294Z,25.60
2018-03-19T13:38:22.023Z,25.80
2018-03-19T13:40:47.754Z,25.03
2018-03-19T13:43:13.486Z,27.10
2018-03-19T13:45:39.226Z,26.37
2018-03-19T13:48:04.970Z,27.30
2018-03-19T13:50:30.702Z,25.91
2018-03-19T13:52:56.422Z,25.69
2018-03-19T13:55:22.183Z,26.32
2018-03-19T13:57:47.919Z,26.22
2018-03-19T14:00:13.657Z,26.95
2018-03-19T14:02:39.424Z,27.37
2018-03-19T14:05:05.182Z,27.69
2018-03-19T14:07:30.911Z,27.80
2018-03-19T14:09:56.677Z,28.08
2018-03-19T14:12:22.534Z,28.13
2018-03-19T14:14:48.869Z,28.31
2018-03-19T14:17:18.463Z,28.55
2018-03-19T14:19:46.029Z,28.47
2018-03-19T14:22:12.449Z,28.84
2018-03-19T14:24:38.738Z,29.61
2018-03-19T14:27:08.401Z,29.04
2018-03-19T14:29:35.368Z,30.63
2018-03-19T14:32:02.509Z,29.91
2018-03-19T14:34:29.161Z,29.54
2018-03-19T14:36:55.951Z,28.98
2018-03-19T14:39:23.535Z,29.17
2018-03-19T14:41:54.219Z,28.39
2018-03-19T14:44:21.088Z,27.63
2018-03-19T14:46:49.349Z,28.35
2018-03-19T14:49:17.267Z,29.23
2018-03-19T14:51:43.772Z,29.26
2018-03-19T14:54:09.602Z,29.97
2018-03-19T14:56:35.422Z,30.09
2018-03-19T14:59:01.166Z,30.58
2018-03-19T15:01:26.917Z,31.31
2018-03-19T15:03:53.813Z,31.50
2018-03-19T15:06:20.650Z,30.45
2018-03-19T15:08:46.484Z,30.52
2018-03-19T15:11:12.634Z,30.01
2018-03-19T15:13:38.728Z,29.60
2018-03-19T15:16:06.246Z,30.32
2018-03-19T15:18:35.223Z,29.63
2018-03-19T15:21:03.853Z,29.88
2018-03-19T15:23:30.055Z,29.97
2018-03-19T15:25:56.707Z,29.74
2018-03-19T15:28:22.634Z,30.77
2018-03-19T15:30:48.367Z,30.92
2018-03-19T15:33:14.109Z,30.06
2018-03-19T15:35:39.845Z,30.69
2018-03-19T15:38:05.592Z,30.99
2018-03-19T15:40:31.323Z,31.24
2018-03-19T15:42:57.055Z,31.81
2018-03-19T15:45:22.794Z,33.12
2018-03-19T15:47:48.537Z,34.42
2018-03-19T15:50:14.263Z,35.53
2018-03-19T15:52:39.999Z,35.49
2018-03-19T15:55:05.733Z,35.72
2018-03-19T15:57:31.491Z,35.37
2018-03-19T15:59:57.230Z,35.30
2018-03-19T16:02:22.979Z,35.87
2018-03-19T16:04:48.724Z,36.01
2018-03-19T16:07:14.468Z,35.80
2018-03-19T16:09:40.198Z,35.99
2018-03-19T16:12:05.933Z,35.80
2018-03-19T16:14:31.673Z,36.60
2018-03-19T16:16:57.385Z,36.96
2018-03-19T16:19:23.109Z,37.04
2018-03-19T16:21:48.834Z,36.98
2018-03-19T16:24:14.769Z,37.90
2018-03-19T16:26:40.488Z,40.21
2018-03-19T16:29:06.266Z,42.26
2018-03-19T16:31:32.006Z,43.33
2018-03-19T16:33:57.751Z,44.22
2018-03-19T16:36:23.485Z,44.25
2018-03-19T16:38:49.221Z,44.69
2018-03-19T16:41:14.974Z,44.83
2018-03-19T16:43:40.919Z,44.83
2018-03-19T16:46:06.698Z,44.86
2018-03-19T16:48:32.470Z,45.48
2018-03-19T16:50:58.206Z,45.25
2018-03-19T16:53:23.962Z,45.56
2018-03-19T16:55:49.754Z,45.94
2018-03-19T16:58:15.543Z,46.28
2018-03-19T17:00:41.270Z,46.56
2018-03-19T17:03:07.020Z,46.84
2018-03-19T17:05:32.835Z,46.58
2018-03-19T17:07:58.569Z,46.98
2018-03-19T17:10:24.298Z,46.65
2018-03-19T17:12:50.056Z,47.26
2018-03-19T17:15:15.796Z,46.45
2018-03-19T17:17:41.533Z,46.05
2018-03-19T17:20:07.290Z,46.13
2018-03-19T17:22:33.010Z,46.76
2018-03-19T17:24:58.749Z,46.85
2018-03-19T17:27:24.493Z,47.33
2018-03-19T17:29:50.246Z,47.52
2018-03-19T17:32:15.982Z,48.32
2018-03-19T17:34:41.745Z,48.81
2018-03-19T17:37:07.506Z,48.81
2018-03-19T17:39:33.255Z,49.03
2018-03-19T17:41:58.994Z,47.80
2018-03-19T17:44:24.765Z,47.67
2018-03-19T17:46:50.507Z,46.11
2018-03-19T17:49:16.402Z,45.66
2018-03-19T17:51:42.147Z,45.81
2018-03-19T17:54:08.395Z,46.19
2018-03-19T17:56:34.143Z,47.68
2018-03-19T17:58:59.886Z,47.32
2018-03-19T18:01:25.630Z,47.84
2018-03-19T18:03:51.370Z,47.05
2018-03-19T18:06:17.106Z,47.12
2018-03-19T18:08:42.826Z,46.91
2018-03-19T18:11:08.566Z,48.04
2018-03-19T18:13:34.281Z,46.93
2018-03-19T18:16:00.020Z,47.44
2018-03-19T18:18:27.129Z,47.52
2018-03-19T18:20:52.922Z,47.15
2018-03-19T18:23:18.678Z,47.18
2018-03-19T18:25:45.447Z,47.10
2018-03-19T18:28:12.424Z,48.04
2018-03-19T18:30:38.197Z,47.06
2018-03-19T18:33:03.957Z,47.73
2018-03-19T18:35:29.703Z,47.62
2018-03-19T18:37:55.479Z,49.77
2018-03-19T18:40:21.222Z,48.82
2018-03-19T18:42:46.985Z,49.72
2018-03-19T18:45:12.745Z,49.56
2018-03-19T18:47:38.476Z,50.17
2018-03-19T18:50:04.257Z,51.03
2018-03-19T18:52:29.937Z,50.67
2018-03-19T18:54:55.691Z,51.37
2018-03-19T18:57:21.406Z,52.87
2018-03-19T18:59:47.122Z,52.75
2018-03-19T19:02:12.838Z,51.89
2018-03-19T19:04:38.553Z,52.12
2018-03-19T19:07:04.286Z,52.38
2018-03-19T19:09:30.018Z,52.44
2018-03-19T19:11:55.749Z,52.66
2018-03-19T19:14:21.473Z,51.89
2018-03-19T19:16:47.220Z,53.31
2018-03-19T19:19:12.944Z,51.47
2018-03-19T19:21:38.664Z,52.44
2018-03-19T19:24:04.387Z,50.75
2018-03-19T19:26:30.182Z,50.83
2018-03-19T19:28:56.139Z,50.13
2018-03-19T19:31:22.042Z,48.24
2018-03-19T19:33:47.982Z,48.45
2018-03-19T19:36:13.704Z,48.57
2018-03-19T19:38:39.422Z,48.37
2018-03-19T19:41:05.158Z,48.36
2018-03-19T19:43:30.889Z,47.96
2018-03-19T19:45:56.763Z,48.11
2018-03-19T19:48:22.799Z,47.95
2018-03-19T19:50:48.819Z,48.13
2018-03-19T19:53:14.830Z,48.78
2018-03-19T19:55:40.550Z,48.58
2018-03-19T19:58:06.277Z,50.34
2018-03-19T20:00:32.344Z,50.54
2018-03-19T20:02:58.072Z,51.31
2018-03-19T20:05:23.793Z,52.03
2018-03-19T20:07:49.529Z,53.17
2018-03-19T20:10:15.246Z,53.75
2018-03-19T20:12:40.969Z,54.76
2018-03-19T20:15:06.684Z,55.00
2018-03-19T20:17:32.414Z,56.53
2018-03-19T20:19:58.175Z,57.69
2018-03-19T20:22:24.010Z,58.65
2018-03-19T20:24:49.726Z,59.31
2018-03-19T20:27:15.449Z,60.26
2018-03-19T20:29:41.195Z,61.21
2018-03-19T20:32:06.918Z,62.05
2018-03-19T20:34:32.655Z,63.12
2018-03-19T20:36:58.554Z,63.05
2018-03-19T20:39:24.498Z,64.33
2018-03-19T20:41:50.224Z,65.11
2018-03-19T20:44:15.943Z,66.35
2018-03-19T20:46:41.694Z,66.25
2018-03-19T20:49:07.479Z,66.31
2018-03-19T20:51:33.173Z,66.96
2018-03-19T20:53:58.982Z,67.47
2018-03-19T20:56:24.851Z,68.77
2018-03-19T20:58:50.766Z,68.82
2018-03-19T21:01:16.760Z,69.33
2018-03-19T21:03:42.837Z,70.46
2018-03-19T21:06:08.779Z,70.56
2018-03-19T21:08:34.537Z,70.73
2018-03-19T21:11:00.410Z,71.65
2018-03-19T21:13:26.363Z,73.42
2018-03-19T21:15:52.264Z,73.58
2018-03-19T21:18:18.234Z,75.17
2018-03-19T21:20:44.075Z,75.37
2018-03-19T21:23:09.822Z,76.97
2018-03-19T21:25:35.574Z,77.48
2018-03-19T21:28:01.310Z,77.89
2018-03-19T21:30:27.048Z,77.38
2018-03-19T21:32:52.780Z,77.93
2018-03-19T21:35:18.521Z,79.55
2018-03-19T21:37:44.250Z,79.70
2018-03-19T21:40:09.982Z,78.64
2018-03-19T21:42:35.701Z,80.49
2018-03-19T21:45:01.442Z,81.20
2018-03-19T21:47:27.185Z,81.11
2018-03-19T21:49:53.055Z,81.73
2018-03-19T21:52:18.798Z,82.46
2018-03-19T21:54:44.546Z,82.01
2018-03-19T21:57:10.257Z,82.05
2018-03-19T21:59:36.001Z,82.97
2018-03-19T22:02:01.734Z,82.40
2018-03-19T22:04:27.742Z,84.27
2018-03-19T22:06:53.469Z,84.36
2018-03-19T22:09:19.229Z,84.48
2018-03-19T22:11:45.136Z,83.33
2018-03-19T22:14:11.058Z,84.40
2018-03-19T22:16:36.809Z,85.38
2018-03-19T22:19:02.683Z,85.03
2018-03-19T22:21:28.520Z,85.75
2018-03-19T22:23:54.251Z,85.28
2018-03-19T22:26:19.989Z,85.62
2018-03-19T22:28:45.706Z,84.83
2018-03-19T22:31:11.428Z,86.14
2018-03-19T22:33:37.140Z,85.79
2018-03-19T22:36:02.870Z,85.46
2018-03-19T22:38:28.596Z,86.49
2018-03-19T22:40:54.325Z,86.56
2018-03-19T22:43:20.043Z,86.75
2018-03-19T22:45:45.774Z,87.14
2018-03-19T22:48:11.518Z,87.89
2018-03-19T22:50:37.230Z,87.58
2018-03-19T22:53:02.958Z,87.87
2018-03-19T22:55:28.683Z,88.01
2018-03-19T22:57:54.413Z,87.05
2018-03-19T23:00:20.124Z,87.64
2018-03-19T23:02:45.861Z,87.90
2018-03-19T23:05:26.561Z,87.48
2018-03-19T23:07:52.286Z,88.37
2018-03-19T23:10:17.997Z,89.02
2018-03-19T23:12:43.753Z,89.94
2018-03-19T23:15:09.474Z,89.01
2018-03-19T23:17:35.227Z,90.46
2018-03-19T23:20:00.959Z,90.03
2018-03-19T23:22:26.690Z,89.76
2018-03-19T23:24:52.406Z,91.74
2018-03-19T23:27:18.130Z,91.71
2018-03-19T23:29:43.853Z,91.36
2018-03-19T23:32:09.578Z,91.80
2018-03-19T23:34:35.297Z,93.13
2018-03-19T23:37:01.017Z,91.82
2018-03-19T23:39:26.758Z,90.94
2018-03-19T23:41:52.474Z,92.59
2018-03-19T23:44:18.213Z,92.25
2018-03-19T23:46:43.933Z,92.12
2018-03-19T23:49:09.666Z,92.88
2018-03-19T23:51:35.389Z,93.26
2018-03-19T23:54:01.114Z,93.08
2018-03-19T23:56:26.840Z,93.46
2018-03-19T23:58:52.566Z,93.66
